createdAt,value
2022-11-25T00:01:40.984Z,90.98
2022-11-25T00:04:09.972Z,88.12
2022-11-25T00:06:39.077Z,89.90
2022-11-25T00:09:11.835Z,94.51
2022-11-25T00:11:42.918Z,93.33
2022-11-25T00:14:14.879Z,85.21
2022-11-25T00:16:48.323Z,88.89
2022-11-25T00:19:17.936Z,87.46
2022-11-25T00:21:46.956Z,88.69
2022-11-25T00:24:17.692Z,83.34
2022-11-25T00:26:46.580Z,85.75
2022-11-25T00:29:15.512Z,86.35
2022-11-25T00:31:44.816Z,87.51
2022-11-25T00:34:15.188Z,87.56
2022-11-25T00:36:44.370Z,88.44
2022-11-25T00:39:15.166Z,89.16
2022-11-25T00:42:03.460Z,90.67
2022-11-25T00:44:40.395Z,93.12
2022-11-25T00:47:12.767Z,91.62
2022-11-25T00:49:47.352Z,87.35
2022-11-25T00:52:18.546Z,89.51
2022-11-25T00:54:50.820Z,87.61
2022-11-25T00:57:22.830Z,87.19
2022-11-25T00:59:51.866Z,91.22
2022-11-25T01:02:23.795Z,94.65
2022-11-25T01:04:52.782Z,96.78
2022-11-25T01:07:21.701Z,93.39
2022-11-25T01:09:50.867Z,96.80
2022-11-25T01:12:21.191Z,97.94
2022-11-25T01:14:53.453Z,100.00
2022-11-25T01:17:22.363Z,100.00
2022-11-25T01:19:51.241Z,100.00
2022-11-25T01:22:22.174Z,100.00
2022-11-25T01:24:50.985Z,100.00
2022-11-25T01:27:23.558Z,100.00
2022-11-25T01:29:52.399Z,100.00
2022-11-25T01:32:21.340Z,100.00
2022-11-25T01:34:50.415Z,100.00
2022-11-25T01:37:19.345Z,95.48
2022-11-25T01:39:48.380Z,94.53
2022-11-25T01:42:18.767Z,79.67
2022-11-25T01:45:30.079Z,92.04
2022-11-25T01:48:06.428Z,90.50
2022-11-25T01:50:37.789Z,90.99
2022-11-25T01:53:09.348Z,92.16
2022-11-25T01:55:41.814Z,94.27
2022-11-25T01:58:15.679Z,93.39
2022-11-25T02:00:51.450Z,94.77
2022-11-25T02:03:23.779Z,96.36
2022-11-25T02:06:00.006Z,99.56
2022-11-25T02:08:34.128Z,98.49
2022-11-25T02:11:04.940Z,100.00
2022-11-25T02:13:34.859Z,100.00
2022-11-25T02:16:05.469Z,100.00
2022-11-25T02:18:34.543Z,100.00
2022-11-25T02:21:03.518Z,100.00
2022-11-25T02:23:40.395Z,100.00
2022-11-25T02:26:12.996Z,100.00
2022-11-25T02:28:41.946Z,100.00
2022-11-25T02:31:10.987Z,100.00
2022-11-25T02:33:39.863Z,100.00
2022-11-25T02:36:14.115Z,100.00
2022-11-25T02:38:46.608Z,100.00
2022-11-25T02:41:20.930Z,100.00
2022-11-25T02:43:55.290Z,100.00
2022-11-25T02:46:26.707Z,100.00
2022-11-25T02:49:09.038Z,100.00
2022-11-25T02:51:40.210Z,100.00
2022-11-25T02:54:11.351Z,100.00
2022-11-25T02:56:41.779Z,100.00
2022-11-25T02:59:11.377Z,100.00
2022-11-25T03:01:41.194Z,100.00
2022-11-25T03:04:12.022Z,100.00
2022-11-25T03:06:40.892Z,100.00
2022-11-25T03:09:09.937Z,100.00
2022-11-25T03:11:59.068Z,100.00
2022-11-25T03:14:28.091Z,100.00
2022-11-25T03:16:57.024Z,100.00
2022-11-25T03:19:28.022Z,100.00
2022-11-25T03:21:56.954Z,100.00
2022-11-25T03:24:25.938Z,100.00
2022-11-25T03:26:56.460Z,100.00
2022-11-25T03:29:25.429Z,100.00
2022-11-25T03:31:54.765Z,100.00
2022-11-25T03:34:23.919Z,100.00
2022-11-25T03:36:53.026Z,100.00
2022-11-25T03:39:24.933Z,100.00
2022-11-25T03:41:53.900Z,100.00
2022-11-25T03:44:24.921Z,100.00
2022-11-25T03:46:54.930Z,100.00
2022-11-25T03:49:23.975Z,100.00
2022-11-25T03:51:52.918Z,100.00
2022-11-25T03:54:23.112Z,99.78
2022-11-25T03:57:18.494Z,100.00
2022-11-25T03:59:48.828Z,100.00
2022-11-25T04:02:18.910Z,100.00
2022-11-25T04:04:49.148Z,100.00
2022-11-25T04:07:19.552Z,100.00
2022-11-25T04:09:49.801Z,94.21
2022-11-25T04:12:39.698Z,100.00
2022-11-25T04:15:12.393Z,100.00
2022-11-25T04:17:42.829Z,100.00
2022-11-25T04:20:13.165Z,100.00
2022-11-25T04:22:44.436Z,100.00
2022-11-25T04:25:13.660Z,100.00
2022-11-25T04:27:42.860Z,100.00
2022-11-25T04:30:14.201Z,100.00
2022-11-25T04:32:45.370Z,93.17
2022-11-25T04:35:16.565Z,96.35
2022-11-25T04:37:48.896Z,98.05
2022-11-25T04:40:18.116Z,98.67
2022-11-25T04:42:59.807Z,100.00
2022-11-25T04:45:51.470Z,96.87
2022-11-25T04:48:22.884Z,96.48
2022-11-25T04:50:51.725Z,100.00
2022-11-25T04:53:20.955Z,100.00
2022-11-25T04:55:49.996Z,96.73
2022-11-25T04:58:38.871Z,97.23
2022-11-25T05:01:09.090Z,100.00
2022-11-25T05:03:46.518Z,83.58
2022-11-25T05:06:17.966Z,90.39
2022-11-25T05:08:49.789Z,95.03
2022-11-25T05:11:19.848Z,92.36
2022-11-25T05:13:49.275Z,88.03
2022-11-25T05:16:19.588Z,90.61
2022-11-25T05:18:48.644Z,91.87
2022-11-25T05:21:17.619Z,93.08
2022-11-25T05:23:48.771Z,96.45
2022-11-25T05:26:20.672Z,96.05
2022-11-25T05:28:52.867Z,95.25
2022-11-25T05:31:23.115Z,93.52
2022-11-25T05:33:52.637Z,92.71
2022-11-25T05:36:21.843Z,92.16
2022-11-25T05:38:51.752Z,95.10
2022-11-25T05:41:29.647Z,96.91
2022-11-25T05:43:58.568Z,96.27
2022-11-25T05:46:28.992Z,96.07
2022-11-25T05:48:59.071Z,91.47
2022-11-25T05:51:29.283Z,89.88
2022-11-25T05:53:58.819Z,93.02
2022-11-25T05:56:31.842Z,93.74
2022-11-25T05:59:26.822Z,85.91
2022-11-25T06:02:14.362Z,78.57
2022-11-25T06:04:43.284Z,77.72
2022-11-25T06:07:12.738Z,77.91
2022-11-25T06:09:42.943Z,69.66
2022-11-25T06:12:12.956Z,67.27
2022-11-25T06:14:49.674Z,68.65
2022-11-25T06:17:20.226Z,71.40
2022-11-25T06:20:00.268Z,71.14
2022-11-25T06:22:29.655Z,69.94
2022-11-25T06:25:03.252Z,67.67
2022-11-25T06:27:56.825Z,70.25
2022-11-25T06:30:23.636Z,68.94
2022-11-25T06:33:07.634Z,65.75
2022-11-25T06:35:37.032Z,64.25
2022-11-25T06:38:06.792Z,64.60
2022-11-25T06:40:35.614Z,61.97
2022-11-25T06:43:06.003Z,62.84
2022-11-25T06:45:35.188Z,53.03
2022-11-25T06:48:04.309Z,55.48
2022-11-25T06:50:34.783Z,55.64
2022-11-25T06:53:04.156Z,50.06
2022-11-25T06:55:34.079Z,48.20
2022-11-25T06:58:28.429Z,49.51
2022-11-25T07:00:52.344Z,57.53
2022-11-25T07:03:21.212Z,51.90
2022-11-25T07:05:51.511Z,55.52
2022-11-25T07:08:22.506Z,51.16
2022-11-25T07:10:51.741Z,50.65
2022-11-25T07:13:21.344Z,50.43
2022-11-25T07:15:50.239Z,48.71
2022-11-25T07:18:19.185Z,48.00
2022-11-25T07:20:48.146Z,48.18
2022-11-25T07:23:18.679Z,46.42
2022-11-25T07:25:47.565Z,54.98
2022-11-25T07:28:16.424Z,52.29
2022-11-25T07:33:34.255Z,67.69
2022-11-25T07:36:05.755Z,65.76
2022-11-25T07:38:39.905Z,72.05
2022-11-25T07:41:14.558Z,73.11
2022-11-25T07:43:46.347Z,75.30
2022-11-25T07:46:24.978Z,76.16
2022-11-25T07:48:56.849Z,73.57
2022-11-25T07:51:28.251Z,77.34
2022-11-25T07:54:00.574Z,73.00
2022-11-25T07:56:30.500Z,74.06
2022-11-25T07:58:59.334Z,74.75
2022-11-25T08:01:28.347Z,70.38
2022-11-25T08:03:57.341Z,74.20
2022-11-25T08:06:27.773Z,73.41
2022-11-25T08:09:00.164Z,70.21
2022-11-25T08:11:32.331Z,67.96
2022-11-25T08:14:02.003Z,65.46
2022-11-25T08:16:32.332Z,68.08
2022-11-25T08:19:03.346Z,67.34
2022-11-25T08:21:32.978Z,63.41
2022-11-25T08:24:04.152Z,61.49
2022-11-25T08:26:36.285Z,61.48
2022-11-25T08:29:06.637Z,62.14
2022-11-25T08:31:38.000Z,58.54
2022-11-25T08:34:08.027Z,57.08
2022-11-25T08:36:37.772Z,55.24
2022-11-25T08:39:29.050Z,53.94
2022-11-25T08:41:57.836Z,48.88
2022-11-25T08:44:28.842Z,47.87
2022-11-25T08:46:57.791Z,47.41
2022-11-25T08:49:27.009Z,41.38
2022-11-25T08:51:56.008Z,52.31
2022-11-25T08:54:26.256Z,57.76
2022-11-25T08:56:55.170Z,46.99
2022-11-25T08:59:25.296Z,42.70
2022-11-25T09:01:54.186Z,42.29
2022-11-25T09:04:23.173Z,41.60
2022-11-25T09:06:52.263Z,40.64
2022-11-25T09:09:21.201Z,40.96
2022-11-25T09:11:51.531Z,40.13
2022-11-25T09:14:20.460Z,38.82
2022-11-25T09:16:49.601Z,39.22
2022-11-25T09:19:18.954Z,40.43
2022-11-25T09:21:47.757Z,39.90
2022-11-25T09:24:16.892Z,39.49
2022-11-25T09:26:45.783Z,40.03
2022-11-25T09:29:16.117Z,40.39
2022-11-25T09:31:46.265Z,40.48
2022-11-25T09:34:16.802Z,41.56
2022-11-25T09:36:45.908Z,41.24
2022-11-25T09:39:14.858Z,40.83
2022-11-25T09:42:15.273Z,40.47
2022-11-25T09:45:21.568Z,41.08
2022-11-25T09:48:02.041Z,41.04
2022-11-25T09:50:49.932Z,41.32
2022-11-25T09:53:29.134Z,40.46
2022-11-25T09:56:03.636Z,41.44
2022-11-25T09:58:36.704Z,41.39
2022-11-25T10:01:13.788Z,41.78
2022-11-25T10:03:46.952Z,41.13
2022-11-25T10:06:18.913Z,41.14
2022-11-25T10:08:51.924Z,40.22
2022-11-25T10:11:30.018Z,39.08
2022-11-25T10:14:03.536Z,39.83
2022-11-25T10:16:40.665Z,39.30
2022-11-25T10:19:21.178Z,39.12
2022-11-25T10:21:50.332Z,40.04
2022-11-25T10:24:21.510Z,40.52
2022-11-25T10:26:58.715Z,40.35
2022-11-25T10:29:30.208Z,39.95
2022-11-25T10:32:12.816Z,39.14
2022-11-25T10:34:45.674Z,38.43
2022-11-25T10:37:20.686Z,40.27
2022-11-25T10:39:49.561Z,38.02
2022-11-25T10:42:23.492Z,37.69
2022-11-25T10:44:54.878Z,37.00
2022-11-25T10:47:36.569Z,37.72
2022-11-25T10:50:16.528Z,37.80
2022-11-25T10:52:51.834Z,37.24
2022-11-25T10:55:21.921Z,37.03
2022-11-25T10:57:51.016Z,36.23
2022-11-25T11:00:29.561Z,35.33
2022-11-25T11:03:02.436Z,34.81
2022-11-25T11:05:32.287Z,35.85
2022-11-25T11:08:19.445Z,33.30
2022-11-25T11:10:54.318Z,32.52
2022-11-25T11:13:27.146Z,32.19
2022-11-25T11:15:56.103Z,33.84
2022-11-25T11:18:29.556Z,34.88
2022-11-25T11:21:00.838Z,35.06
2022-11-25T11:23:30.776Z,36.47
2022-11-25T11:26:02.571Z,33.46
2022-11-25T11:28:40.466Z,36.12
2022-11-25T11:31:19.249Z,37.04
2022-11-25T11:33:59.553Z,37.74
2022-11-25T11:36:42.120Z,38.77
2022-11-25T11:39:29.113Z,38.87
2022-11-25T11:42:07.279Z,39.80
2022-11-25T11:44:48.884Z,35.86
2022-11-25T11:47:26.661Z,35.08
2022-11-25T11:50:14.231Z,35.26
2022-11-25T11:52:54.445Z,36.97
2022-11-25T11:55:37.773Z,39.33
2022-11-25T11:58:17.723Z,40.53
2022-11-25T12:00:52.278Z,41.50
2022-11-25T12:03:25.437Z,40.87
2022-11-25T12:05:57.967Z,41.43
2022-11-25T12:08:33.109Z,41.74
2022-11-25T12:11:05.758Z,42.48
2022-11-25T12:13:39.228Z,41.42
2022-11-25T12:16:14.657Z,41.75
2022-11-25T12:18:50.536Z,43.42
2022-11-25T12:21:37.459Z,49.51
2022-11-25T12:24:19.734Z,47.76
2022-11-25T12:26:53.515Z,45.44
2022-11-25T12:29:33.321Z,41.89
2022-11-25T12:32:28.913Z,40.76
2022-11-25T12:35:03.267Z,39.67
2022-11-25T12:37:39.181Z,39.69
2022-11-25T12:40:16.642Z,41.37
2022-11-25T12:42:47.656Z,42.22
2022-11-25T12:45:21.835Z,50.37
2022-11-25T12:47:51.376Z,53.81
2022-11-25T12:50:29.908Z,47.23
2022-11-25T12:53:11.756Z,48.39
2022-11-25T12:55:42.190Z,53.67
2022-11-25T12:58:46.251Z,57.38
2022-11-25T13:01:34.310Z,52.43
2022-11-25T13:04:34.667Z,55.90
2022-11-25T13:07:27.097Z,46.66
2022-11-25T13:10:21.347Z,47.30
2022-11-25T13:12:59.377Z,46.55
2022-11-25T13:15:30.814Z,53.55
2022-11-25T13:18:03.422Z,55.73
2022-11-25T13:20:40.184Z,54.31
2022-11-25T13:23:22.668Z,55.83
2022-11-25T13:25:56.667Z,55.55
2022-11-25T13:28:34.392Z,61.56
2022-11-25T13:31:22.850Z,56.52
2022-11-25T13:34:09.033Z,61.15
2022-11-25T13:36:49.727Z,58.31
2022-11-25T13:39:19.782Z,56.41
2022-11-25T13:41:59.543Z,60.73
2022-11-25T13:44:32.569Z,60.53
2022-11-25T13:47:26.391Z,58.67
2022-11-25T13:49:58.368Z,54.30
2022-11-25T13:52:38.049Z,50.74
2022-11-25T13:55:26.218Z,47.41
2022-11-25T13:58:16.428Z,46.73
2022-11-25T14:01:17.028Z,49.85
2022-11-25T14:03:53.305Z,47.80
2022-11-25T14:06:39.761Z,47.26
2022-11-25T14:09:19.496Z,48.59
2022-11-25T14:12:10.110Z,47.18
2022-11-25T14:15:03.972Z,46.00
2022-11-25T14:18:05.619Z,45.58
2022-11-25T14:20:44.900Z,45.31
2022-11-25T14:23:46.431Z,44.97
2022-11-25T14:26:48.223Z,45.45
2022-11-25T14:29:21.010Z,44.95
2022-11-25T14:31:53.369Z,44.86
2022-11-25T14:34:25.553Z,44.93
2022-11-25T14:36:58.015Z,46.81
2022-11-25T14:39:31.683Z,46.52
2022-11-25T14:42:04.946Z,46.66
2022-11-25T14:44:40.757Z,53.83
2022-11-25T14:47:11.086Z,57.14
2022-11-25T14:50:00.201Z,51.60
2022-11-25T14:52:36.811Z,49.50
2022-11-25T14:55:07.707Z,51.06
2022-11-25T14:57:39.328Z,55.76
2022-11-25T15:00:11.452Z,58.79
2022-11-25T15:02:53.293Z,58.39
2022-11-25T15:05:26.261Z,53.40
2022-11-25T15:07:59.824Z,60.08
2022-11-25T15:10:34.479Z,63.93
2022-11-25T15:13:13.313Z,55.06
2022-11-25T15:15:46.346Z,52.91
2022-11-25T15:18:22.918Z,54.32
2022-11-25T15:20:57.580Z,57.20
2022-11-25T15:23:32.093Z,50.41
2022-11-25T15:26:02.899Z,52.09
2022-11-25T15:28:36.821Z,56.10
2022-11-25T15:31:10.475Z,56.11
2022-11-25T15:33:42.734Z,46.40
2022-11-25T15:36:11.770Z,46.81
2022-11-25T15:38:43.891Z,46.84
2022-11-25T15:41:20.200Z,46.89
2022-11-25T15:43:51.758Z,46.10
2022-11-25T15:46:21.326Z,47.41
2022-11-25T15:48:54.578Z,47.69
2022-11-25T15:51:33.928Z,47.29
2022-11-25T15:54:06.112Z,46.00
2022-11-25T15:56:39.093Z,45.24
2022-11-25T15:59:51.616Z,45.88
2022-11-25T16:02:39.535Z,45.45
2022-11-25T16:05:27.718Z,46.38
2022-11-25T16:08:00.373Z,46.83
2022-11-25T16:10:31.811Z,49.23
2022-11-25T16:13:29.175Z,48.55
2022-11-25T16:16:04.868Z,48.41
2022-11-25T16:18:40.942Z,48.89
2022-11-25T16:21:14.630Z,48.51
2022-11-25T16:23:47.211Z,47.19
2022-11-25T16:26:18.713Z,48.11
2022-11-25T16:28:55.978Z,48.91
2022-11-25T16:31:25.145Z,47.67
2022-11-25T16:33:55.392Z,47.81
2022-11-25T16:36:25.706Z,48.32
2022-11-25T16:38:55.338Z,49.16
2022-11-25T16:41:27.016Z,48.65
2022-11-25T16:43:58.614Z,48.45
2022-11-25T16:46:29.770Z,49.07
2022-11-25T16:48:58.703Z,49.13
2022-11-25T16:51:28.960Z,49.98
2022-11-25T16:53:57.803Z,50.34
2022-11-25T16:56:29.827Z,49.25
2022-11-25T16:58:59.018Z,49.14
2022-11-25T17:01:30.464Z,48.79
2022-11-25T17:03:59.416Z,49.50
2022-11-25T17:06:31.356Z,48.98
2022-11-25T17:09:00.218Z,48.96
2022-11-25T17:11:32.517Z,49.88
2022-11-25T17:14:04.805Z,49.80
2022-11-25T17:16:33.991Z,49.40
2022-11-25T17:19:03.345Z,50.04
2022-11-25T17:21:33.803Z,50.36
2022-11-25T17:24:12.317Z,49.85
2022-11-25T17:26:42.788Z,49.13
2022-11-25T17:29:16.360Z,50.70
2022-11-25T17:31:45.899Z,50.55
2022-11-25T17:34:16.984Z,50.57
2022-11-25T17:36:47.339Z,49.67
2022-11-25T17:39:16.355Z,49.49
2022-11-25T17:41:49.082Z,50.96
2022-11-25T17:44:24.011Z,50.67
2022-11-25T17:46:53.355Z,49.86
2022-11-25T17:49:22.782Z,51.16
2022-11-25T17:51:53.125Z,51.14
2022-11-25T17:54:21.948Z,51.27
2022-11-25T17:56:52.690Z,50.92
2022-11-25T17:59:26.255Z,51.66
2022-11-25T18:01:56.127Z,51.60
2022-11-25T18:04:27.074Z,51.09
2022-11-25T18:06:57.274Z,50.29
2022-11-25T18:09:26.202Z,51.08
2022-11-25T18:11:57.921Z,50.01
2022-11-25T18:14:29.245Z,49.69
2022-11-25T18:17:00.063Z,49.97
2022-11-25T18:19:29.741Z,50.59
2022-11-25T18:22:02.405Z,50.70
2022-11-25T18:24:31.315Z,52.87
2022-11-25T18:27:00.255Z,51.44
2022-11-25T18:29:31.187Z,51.35
2022-11-25T18:32:00.171Z,51.38
2022-11-25T18:34:29.597Z,52.37
2022-11-25T18:37:01.053Z,52.32
2022-11-25T18:39:30.528Z,51.73
2022-11-25T18:42:07.019Z,51.50
2022-11-25T18:44:42.012Z,50.64
2022-11-25T18:47:12.586Z,50.16
2022-11-25T18:49:41.429Z,51.46
2022-11-25T18:52:11.951Z,50.77
2022-11-25T18:54:40.729Z,51.51
2022-11-25T18:57:11.439Z,50.86
2022-11-25T18:59:40.855Z,50.90
2022-11-25T19:02:15.831Z,51.39
2022-11-25T19:04:44.702Z,51.91
2022-11-25T19:07:15.054Z,52.09
2022-11-25T19:09:43.984Z,52.76
2022-11-25T19:12:18.185Z,52.64
2022-11-25T19:14:50.236Z,52.53
2022-11-25T19:17:24.712Z,54.54
2022-11-25T19:19:53.596Z,54.80
2022-11-25T19:22:24.764Z,54.05
2022-11-25T19:24:54.004Z,54.91
2022-11-25T19:27:25.176Z,58.04
2022-11-25T19:29:54.310Z,61.09
2022-11-25T19:32:25.619Z,68.58
2022-11-25T19:34:58.340Z,68.40
2022-11-25T19:37:30.205Z,70.64
2022-11-25T19:39:59.395Z,73.90
2022-11-25T19:42:31.716Z,72.07
2022-11-25T19:45:00.651Z,72.16
2022-11-25T19:47:29.774Z,68.40
2022-11-25T19:50:02.434Z,66.12
2022-11-25T19:52:35.789Z,64.26
2022-11-25T19:55:13.995Z,63.51
2022-11-25T19:57:43.531Z,62.59
2022-11-25T20:00:14.023Z,60.19
2022-11-25T20:02:43.820Z,59.22
2022-11-25T20:05:18.553Z,58.38
2022-11-25T20:07:49.237Z,58.40
2022-11-25T20:10:20.527Z,57.34
2022-11-25T20:12:50.009Z,57.31
2022-11-25T20:15:19.232Z,57.77
2022-11-25T20:17:50.568Z,58.53
2022-11-25T20:20:22.825Z,57.89
2022-11-25T20:22:57.786Z,57.50
2022-11-25T20:25:27.413Z,57.40
2022-11-25T20:27:56.978Z,65.21
2022-11-25T20:30:27.113Z,69.60
2022-11-25T20:32:56.517Z,72.17
2022-11-25T20:35:27.092Z,79.33
2022-11-25T20:38:00.396Z,91.00
2022-11-25T20:40:38.557Z,89.20
2022-11-25T20:43:12.635Z,87.64
2022-11-25T20:45:41.553Z,88.04
2022-11-25T20:48:12.482Z,88.48
2022-11-25T20:50:41.557Z,87.63
2022-11-25T20:53:15.870Z,83.11
2022-11-25T20:55:45.921Z,80.40
2022-11-25T20:58:22.334Z,79.18
2022-11-25T21:00:57.096Z,77.82
2022-11-25T21:03:26.850Z,77.43
2022-11-25T21:05:58.193Z,76.65
2022-11-25T21:08:31.603Z,76.01
2022-11-25T21:11:00.655Z,78.64
2022-11-25T21:13:31.147Z,81.96
2022-11-25T21:16:00.091Z,79.53
2022-11-25T21:18:29.359Z,81.41
2022-11-25T21:20:59.074Z,84.18
2022-11-25T21:23:33.488Z,82.91
2022-11-25T21:26:06.896Z,81.69
2022-11-25T21:28:41.843Z,82.36
2022-11-25T21:31:15.693Z,84.00
2022-11-25T21:33:45.031Z,88.61
2022-11-25T21:36:19.614Z,94.24
2022-11-25T21:38:51.823Z,90.92
2022-11-25T21:41:21.146Z,87.93
2022-11-25T21:43:51.747Z,88.15
2022-11-25T21:46:22.527Z,91.89
2022-11-25T21:48:51.455Z,93.22
2022-11-25T21:51:24.062Z,90.41
2022-11-25T21:53:55.099Z,87.30
2022-11-25T21:56:28.213Z,86.17
2022-11-25T21:58:59.153Z,83.53
2022-11-25T22:01:28.408Z,77.19
2022-11-25T22:03:57.333Z,76.65
2022-11-25T22:06:27.988Z,77.84
2022-11-25T22:08:58.702Z,76.29
2022-11-25T22:11:31.732Z,75.46
2022-11-25T22:14:02.192Z,75.13
2022-11-25T22:16:33.960Z,75.37
2022-11-25T22:19:03.304Z,75.23
2022-11-25T22:21:32.236Z,74.24
2022-11-25T22:24:02.457Z,72.54
2022-11-25T22:26:34.147Z,74.45
2022-11-25T22:29:04.538Z,75.00
2022-11-25T22:31:33.500Z,74.34
2022-11-25T22:34:02.368Z,74.33
2022-11-25T22:36:33.911Z,78.22
2022-11-25T22:39:15.134Z,75.95
2022-11-25T22:41:47.082Z,76.63
2022-11-25T22:44:22.732Z,75.47
2022-11-25T22:46:52.954Z,77.77
2022-11-25T22:49:35.708Z,77.52
2022-11-25T22:52:04.686Z,76.17
2022-11-25T22:54:35.111Z,76.71
2022-11-25T22:57:04.083Z,81.54
2022-11-25T22:59:32.911Z,85.00
2022-11-25T23:02:02.093Z,79.21
2022-11-25T23:04:31.054Z,76.40
2022-11-25T23:07:00.031Z,74.89
2022-11-25T23:09:29.605Z,74.62
2022-11-25T23:11:59.853Z,77.17
2022-11-25T23:14:29.565Z,79.17
2022-11-25T23:16:58.535Z,86.11
2022-11-25T23:19:27.448Z,85.45
2022-11-25T23:21:56.352Z,82.71
2022-11-25T23:24:26.292Z,82.38
2022-11-25T23:26:55.086Z,80.85
2022-11-25T23:29:25.663Z,79.02
2022-11-25T23:31:54.566Z,77.63
2022-11-25T23:34:23.554Z,77.76
2022-11-25T23:36:52.405Z,76.04
2022-11-25T23:39:23.379Z,75.14
2022-11-25T23:41:53.135Z,74.66
2022-11-25T23:44:25.973Z,75.08
2022-11-25T23:46:58.609Z,75.72
2022-11-25T23:49:29.971Z,77.03
2022-11-25T23:52:07.304Z,76.06
2022-11-25T23:54:42.033Z,78.05
2022-11-25T23:57:15.383Z,78.76
2022-11-25T23:59:46.324Z,78.20
